sensor_id;sensor_type;location;lat;lon;timestamp;temperature;humidity
49489;SHT31;35382;51.484;11.476;2024-01-16T00:01:18;-0.89;89.91
49489;SHT31;35382;51.484;11.476;2024-01-16T00:03:43;-0.75;89.49
49489;SHT31;35382;51.484;11.476;2024-01-16T00:06:09;-0.83;89.65
49489;SHT31;35382;51.484;11.476;2024-01-16T00:08:34;-0.72;89.43
49489;SHT31;35382;51.484;11.476;2024-01-16T00:11:01;-0.75;89.55
49489;SHT31;35382;51.484;11.476;2024-01-16T00:13:32;-0.89;89.56
49489;SHT31;35382;51.484;11.476;2024-01-16T00:15:58;-0.89;89.82
49489;SHT31;35382;51.484;11.476;2024-01-16T00:18:23;-0.78;89.61
49489;SHT31;35382;51.484;11.476;2024-01-16T00:20:49;-0.76;89.60
49489;SHT31;35382;51.484;11.476;2024-01-16T00:23:15;-0.72;89.46
49489;SHT31;35382;51.484;11.476;2024-01-16T00:25:41;-0.68;89.53
49489;SHT31;35382;51.484;11.476;2024-01-16T00:28:06;-0.66;89.64
49489;SHT31;35382;51.484;11.476;2024-01-16T00:30:31;-0.65;89.97
49489;SHT31;35382;51.484;11.476;2024-01-16T00:32:57;-0.78;89.73
49489;SHT31;35382;51.484;11.476;2024-01-16T00:35:23;-0.76;90.19
49489;SHT31;35382;51.484;11.476;2024-01-16T00:37:48;-0.75;89.96
49489;SHT31;35382;51.484;11.476;2024-01-16T00:40:13;-0.85;90.36
49489;SHT31;35382;51.484;11.476;2024-01-16T00:42:39;-0.64;89.83
49489;SHT31;35382;51.484;11.476;2024-01-16T00:45:04;-0.58;89.35
49489;SHT31;35382;51.484;11.476;2024-01-16T00:47:30;-0.66;89.58
49489;SHT31;35382;51.484;11.476;2024-01-16T00:49:55;-0.85;89.59
49489;SHT31;35382;51.484;11.476;2024-01-16T00:52:21;-0.76;89.22
49489;SHT31;35382;51.484;11.476;2024-01-16T00:54:46;-0.66;89.16
49489;SHT31;35382;51.484;11.476;2024-01-16T00:57:11;-0.62;89.05
49489;SHT31;35382;51.484;11.476;2024-01-16T00:59:37;-0.71;89.41
49489;SHT31;35382;51.484;11.476;2024-01-16T01:02:03;-0.68;88.95
49489;SHT31;35382;51.484;11.476;2024-01-16T01:04:28;-0.72;88.73
49489;SHT31;35382;51.484;11.476;2024-01-16T01:06:53;-0.64;88.93
49489;SHT31;35382;51.484;11.476;2024-01-16T01:09:21;-0.54;88.50
49489;SHT31;35382;51.484;11.476;2024-01-16T01:11:46;-0.54;88.76
49489;SHT31;35382;51.484;11.476;2024-01-16T01:14:12;-0.58;88.95
49489;SHT31;35382;51.484;11.476;2024-01-16T01:16:37;-0.52;88.82
49489;SHT31;35382;51.484;11.476;2024-01-16T01:19:02;-0.59;89.13
49489;SHT31;35382;51.484;11.476;2024-01-16T01:21:30;-0.65;89.79
49489;SHT31;35382;51.484;11.476;2024-01-16T01:23:55;-0.69;90.16
49489;SHT31;35382;51.484;11.476;2024-01-16T01:26:21;-0.48;89.69
49489;SHT31;35382;51.484;11.476;2024-01-16T01:28:46;-0.51;89.70
49489;SHT31;35382;51.484;11.476;2024-01-16T01:31:12;-0.51;89.68
49489;SHT31;35382;51.484;11.476;2024-01-16T01:33:38;-0.37;89.18
49489;SHT31;35382;51.484;11.476;2024-01-16T01:36:04;-0.47;89.38
49489;SHT31;35382;51.484;11.476;2024-01-16T01:38:31;-0.29;88.82
49489;SHT31;35382;51.484;11.476;2024-01-16T01:40:56;-0.54;89.36
49489;SHT31;35382;51.484;11.476;2024-01-16T01:43:23;-0.66;89.54
49489;SHT31;35382;51.484;11.476;2024-01-16T01:46:14;-0.55;89.37
49489;SHT31;35382;51.484;11.476;2024-01-16T01:48:41;-0.58;89.17
49489;SHT31;35382;51.484;11.476;2024-01-16T01:51:11;-0.79;89.31
49489;SHT31;35382;51.484;11.476;2024-01-16T01:53:39;-0.65;89.23
49489;SHT31;35382;51.484;11.476;2024-01-16T01:56:05;-0.76;89.41
49489;SHT31;35382;51.484;11.476;2024-01-16T01:58:34;-0.54;89.11
49489;SHT31;35382;51.484;11.476;2024-01-16T02:01:00;-0.45;88.78
49489;SHT31;35382;51.484;11.476;2024-01-16T02:03:44;-0.48;88.70
49489;SHT31;35382;51.484;11.476;2024-01-16T02:06:13;-0.57;88.72
49489;SHT31;35382;51.484;11.476;2024-01-16T02:08:39;-0.47;88.85
49489;SHT31;35382;51.484;11.476;2024-01-16T02:11:05;-0.41;89.15
49489;SHT31;35382;51.484;11.476;2024-01-16T02:13:31;-0.44;89.66
49489;SHT31;35382;51.484;11.476;2024-01-16T02:15:57;-0.38;89.54
49489;SHT31;35382;51.484;11.476;2024-01-16T02:18:22;-0.52;90.24
49489;SHT31;35382;51.484;11.476;2024-01-16T02:20:47;-0.59;90.34
49489;SHT31;35382;51.484;11.476;2024-01-16T02:23:14;-0.57;90.17
49489;SHT31;35382;51.484;11.476;2024-01-16T02:25:43;-0.64;90.97
49489;SHT31;35382;51.484;11.476;2024-01-16T02:28:08;-0.83;92.57
49489;SHT31;35382;51.484;11.476;2024-01-16T02:30:34;-0.95;93.35
49489;SHT31;35382;51.484;11.476;2024-01-16T02:32:59;-0.92;94.19
49489;SHT31;35382;51.484;11.476;2024-01-16T02:35:24;-1.12;94.32
49489;SHT31;35382;51.484;11.476;2024-01-16T02:37:53;-1.15;94.47
49489;SHT31;35382;51.484;11.476;2024-01-16T02:40:18;-1.20;94.36
49489;SHT31;35382;51.484;11.476;2024-01-16T02:42:43;-1.15;93.99
49489;SHT31;35382;51.484;11.476;2024-01-16T02:45:09;-1.25;93.01
49489;SHT31;35382;51.484;11.476;2024-01-16T02:47:34;-1.27;92.49
49489;SHT31;35382;51.484;11.476;2024-01-16T02:50:00;-1.21;91.83
49489;SHT31;35382;51.484;11.476;2024-01-16T02:52:26;-1.26;91.56
49489;SHT31;35382;51.484;11.476;2024-01-16T02:54:51;-1.17;91.00
49489;SHT31;35382;51.484;11.476;2024-01-16T02:57:17;-1.02;90.01
49489;SHT31;35382;51.484;11.476;2024-01-16T02:59:45;-0.95;89.48
49489;SHT31;35382;51.484;11.476;2024-01-16T03:02:11;-0.97;89.28
49489;SHT31;35382;51.484;11.476;2024-01-16T03:04:37;-0.97;89.05
49489;SHT31;35382;51.484;11.476;2024-01-16T03:07:02;-0.95;88.83
49489;SHT31;35382;51.484;11.476;2024-01-16T03:09:28;-1.00;88.45
49489;SHT31;35382;51.484;11.476;2024-01-16T03:11:53;-1.00;87.92
49489;SHT31;35382;51.484;11.476;2024-01-16T03:14:18;-0.71;87.12
49489;SHT31;35382;51.484;11.476;2024-01-16T03:16:44;-0.72;87.16
49489;SHT31;35382;51.484;11.476;2024-01-16T03:19:09;-0.82;87.60
49489;SHT31;35382;51.484;11.476;2024-01-16T03:21:34;-0.79;87.87
49489;SHT31;35382;51.484;11.476;2024-01-16T03:24:00;-0.83;87.93
49489;SHT31;35382;51.484;11.476;2024-01-16T03:26:25;-0.99;88.45
49489;SHT31;35382;51.484;11.476;2024-01-16T03:28:51;-1.16;89.38
49489;SHT31;35382;51.484;11.476;2024-01-16T03:31:16;-1.03;89.67
49489;SHT31;35382;51.484;11.476;2024-01-16T03:33:41;-1.16;89.48
49489;SHT31;35382;51.484;11.476;2024-01-16T03:36:08;-1.16;89.64
49489;SHT31;35382;51.484;11.476;2024-01-16T03:38:33;-1.23;89.83
49489;SHT31;35382;51.484;11.476;2024-01-16T03:40:59;-1.27;90.07
49489;SHT31;35382;51.484;11.476;2024-01-16T03:43:24;-1.06;89.98
49489;SHT31;35382;51.484;11.476;2024-01-16T03:45:50;-1.03;89.99
49489;SHT31;35382;51.484;11.476;2024-01-16T03:48:15;-0.89;89.49
49489;SHT31;35382;51.484;11.476;2024-01-16T03:50:40;-0.93;89.33
49489;SHT31;35382;51.484;11.476;2024-01-16T03:53:06;-0.83;89.19
49489;SHT31;35382;51.484;11.476;2024-01-16T03:55:31;-0.81;88.70
49489;SHT31;35382;51.484;11.476;2024-01-16T03:57:56;-0.79;88.85
49489;SHT31;35382;51.484;11.476;2024-01-16T04:00:22;-0.66;88.54
49489;SHT31;35382;51.484;11.476;2024-01-16T04:02:47;-0.59;88.55
49489;SHT31;35382;51.484;11.476;2024-01-16T04:05:12;-0.78;89.45
49489;SHT31;35382;51.484;11.476;2024-01-16T04:07:40;-0.76;90.41
49489;SHT31;35382;51.484;11.476;2024-01-16T04:10:06;-0.85;91.07
49489;SHT31;35382;51.484;11.476;2024-01-16T04:12:32;-0.95;91.29
49489;SHT31;35382;51.484;11.476;2024-01-16T04:14:57;-1.23;91.39
49489;SHT31;35382;51.484;11.476;2024-01-16T04:17:22;-1.29;91.72
49489;SHT31;35382;51.484;11.476;2024-01-16T04:19:48;-1.23;91.65
49489;SHT31;35382;51.484;11.476;2024-01-16T04:22:13;-1.29;91.42
49489;SHT31;35382;51.484;11.476;2024-01-16T04:24:38;-1.29;91.38
49489;SHT31;35382;51.484;11.476;2024-01-16T04:27:04;-1.25;90.82
49489;SHT31;35382;51.484;11.476;2024-01-16T04:29:29;-1.21;90.51
49489;SHT31;35382;51.484;11.476;2024-01-16T04:31:54;-1.25;89.61
49489;SHT31;35382;51.484;11.476;2024-01-16T04:34:20;-1.27;89.94
49489;SHT31;35382;51.484;11.476;2024-01-16T04:36:45;-1.21;89.26
49489;SHT31;35382;51.484;11.476;2024-01-16T04:39:10;-1.23;89.78
49489;SHT31;35382;51.484;11.476;2024-01-16T04:41:36;-1.15;89.41
49489;SHT31;35382;51.484;11.476;2024-01-16T04:44:01;-1.27;89.71
49489;SHT31;35382;51.484;11.476;2024-01-16T04:46:26;-1.30;89.78
49489;SHT31;35382;51.484;11.476;2024-01-16T04:48:52;-1.32;89.88
49489;SHT31;35382;51.484;11.476;2024-01-16T04:51:18;-1.25;89.16
49489;SHT31;35382;51.484;11.476;2024-01-16T04:53:43;-1.20;89.17
49489;SHT31;35382;51.484;11.476;2024-01-16T04:56:08;-1.23;89.21
49489;SHT31;35382;51.484;11.476;2024-01-16T04:58:34;-0.97;88.64
49489;SHT31;35382;51.484;11.476;2024-01-16T05:01:00;-0.86;88.24
49489;SHT31;35382;51.484;11.476;2024-01-16T05:03:31;-0.81;87.46
49489;SHT31;35382;51.484;11.476;2024-01-16T05:05:56;-0.81;87.14
49489;SHT31;35382;51.484;11.476;2024-01-16T05:08:22;-0.91;87.23
49489;SHT31;35382;51.484;11.476;2024-01-16T05:10:47;-0.97;87.05
49489;SHT31;35382;51.484;11.476;2024-01-16T05:13:13;-1.02;86.89
49489;SHT31;35382;51.484;11.476;2024-01-16T05:15:38;-1.09;87.08
49489;SHT31;35382;51.484;11.476;2024-01-16T05:18:03;-0.96;86.70
49489;SHT31;35382;51.484;11.476;2024-01-16T05:20:29;-0.86;85.69
49489;SHT31;35382;51.484;11.476;2024-01-16T05:22:55;-0.79;85.76
49489;SHT31;35382;51.484;11.476;2024-01-16T05:25:20;-0.76;85.44
49489;SHT31;35382;51.484;11.476;2024-01-16T05:27:45;-0.97;86.07
49489;SHT31;35382;51.484;11.476;2024-01-16T05:30:11;-1.16;86.11
49489;SHT31;35382;51.484;11.476;2024-01-16T05:32:36;-1.27;85.89
49489;SHT31;35382;51.484;11.476;2024-01-16T05:35:02;-1.50;86.74
49489;SHT31;35382;51.484;11.476;2024-01-16T05:37:31;-1.64;87.01
49489;SHT31;35382;51.484;11.476;2024-01-16T05:39:56;-1.87;87.40
49489;SHT31;35382;51.484;11.476;2024-01-16T05:42:22;-1.66;88.08
49489;SHT31;35382;51.484;11.476;2024-01-16T05:44:47;-1.62;88.02
49489;SHT31;35382;51.484;11.476;2024-01-16T05:47:12;-1.66;89.17
49489;SHT31;35382;51.484;11.476;2024-01-16T05:49:38;-1.63;90.00
49489;SHT31;35382;51.484;11.476;2024-01-16T05:52:03;-1.51;91.26
49489;SHT31;35382;51.484;11.476;2024-01-16T05:54:29;-1.46;91.54
49489;SHT31;35382;51.484;11.476;2024-01-16T05:56:54;-1.39;91.75
49489;SHT31;35382;51.484;11.476;2024-01-16T05:59:19;-1.38;92.44
49489;SHT31;35382;51.484;11.476;2024-01-16T06:01:45;-1.29;93.06
49489;SHT31;35382;51.484;11.476;2024-01-16T06:04:10;-1.27;93.37
49489;SHT31;35382;51.484;11.476;2024-01-16T06:06:35;-1.23;93.10
49489;SHT31;35382;51.484;11.476;2024-01-16T06:09:01;-1.26;93.50
49489;SHT31;35382;51.484;11.476;2024-01-16T06:11:30;-1.26;94.65
49489;SHT31;35382;51.484;11.476;2024-01-16T06:13:55;-1.19;94.98
49489;SHT31;35382;51.484;11.476;2024-01-16T06:16:21;-1.16;95.49
49489;SHT31;35382;51.484;11.476;2024-01-16T06:18:46;-1.17;95.80
49489;SHT31;35382;51.484;11.476;2024-01-16T06:21:11;-1.26;95.87
49489;SHT31;35382;51.484;11.476;2024-01-16T06:23:37;-1.36;95.13
49489;SHT31;35382;51.484;11.476;2024-01-16T06:26:02;-1.64;94.83
49489;SHT31;35382;51.484;11.476;2024-01-16T06:28:27;-1.77;94.99
49489;SHT31;35382;51.484;11.476;2024-01-16T06:30:53;-1.95;94.91
49489;SHT31;35382;51.484;11.476;2024-01-16T06:33:18;-2.01;94.52
49489;SHT31;35382;51.484;11.476;2024-01-16T06:35:44;-1.95;94.58
49489;SHT31;35382;51.484;11.476;2024-01-16T06:38:09;-1.95;94.11
49489;SHT31;35382;51.484;11.476;2024-01-16T06:40:34;-1.99;93.84
49489;SHT31;35382;51.484;11.476;2024-01-16T06:43:00;-1.98;93.09
49489;SHT31;35382;51.484;11.476;2024-01-16T06:45:26;-2.01;92.26
49489;SHT31;35382;51.484;11.476;2024-01-16T06:47:51;-2.14;91.97
49489;SHT31;35382;51.484;11.476;2024-01-16T06:50:16;-2.12;91.48
49489;SHT31;35382;51.484;11.476;2024-01-16T06:52:42;-2.11;91.39
49489;SHT31;35382;51.484;11.476;2024-01-16T06:55:07;-2.15;91.10
49489;SHT31;35382;51.484;11.476;2024-01-16T06:57:32;-2.32;91.63
49489;SHT31;35382;51.484;11.476;2024-01-16T06:59:58;-2.34;91.75
49489;SHT31;35382;51.484;11.476;2024-01-16T07:02:23;-2.28;91.46
49489;SHT31;35382;51.484;11.476;2024-01-16T07:04:48;-2.19;91.69
49489;SHT31;35382;51.484;11.476;2024-01-16T07:07:14;-2.14;91.71
49489;SHT31;35382;51.484;11.476;2024-01-16T07:09:39;-2.14;91.18
49489;SHT31;35382;51.484;11.476;2024-01-16T07:12:05;-2.05;91.55
49489;SHT31;35382;51.484;11.476;2024-01-16T07:14:31;-1.98;91.43
49489;SHT31;35382;51.484;11.476;2024-01-16T07:16:57;-2.02;91.11
49489;SHT31;35382;51.484;11.476;2024-01-16T07:19:22;-2.02;91.33
49489;SHT31;35382;51.484;11.476;2024-01-16T07:21:47;-2.04;91.47
49489;SHT31;35382;51.484;11.476;2024-01-16T07:24:13;-2.01;91.53
49489;SHT31;35382;51.484;11.476;2024-01-16T07:26:38;-2.21;91.67
49489;SHT31;35382;51.484;11.476;2024-01-16T07:29:03;-2.37;91.60
49489;SHT31;35382;51.484;11.476;2024-01-16T07:31:29;-2.22;91.87
49489;SHT31;35382;51.484;11.476;2024-01-16T07:33:54;-2.18;91.92
49489;SHT31;35382;51.484;11.476;2024-01-16T07:36:20;-2.24;91.53
49489;SHT31;35382;51.484;11.476;2024-01-16T07:38:45;-2.14;91.98
49489;SHT31;35382;51.484;11.476;2024-01-16T07:41:10;-2.09;91.75
49489;SHT31;35382;51.484;11.476;2024-01-16T07:43:36;-2.25;91.51
49489;SHT31;35382;51.484;11.476;2024-01-16T07:46:01;-2.27;91.90
49489;SHT31;35382;51.484;11.476;2024-01-16T07:48:29;-2.34;92.08
49489;SHT31;35382;51.484;11.476;2024-01-16T07:50:54;-2.46;91.94
49489;SHT31;35382;51.484;11.476;2024-01-16T07:53:20;-2.58;92.47
49489;SHT31;35382;51.484;11.476;2024-01-16T07:55:45;-2.55;92.52
49489;SHT31;35382;51.484;11.476;2024-01-16T07:58:13;-2.61;92.00
49489;SHT31;35382;51.484;11.476;2024-01-16T08:00:39;-2.69;91.92
49489;SHT31;35382;51.484;11.476;2024-01-16T08:03:07;-2.45;93.06
49489;SHT31;35382;51.484;11.476;2024-01-16T08:05:32;-2.35;92.37
49489;SHT31;35382;51.484;11.476;2024-01-16T08:07:58;-2.12;92.32
49489;SHT31;35382;51.484;11.476;2024-01-16T08:10:23;-2.09;91.52
49489;SHT31;35382;51.484;11.476;2024-01-16T08:12:48;-1.97;92.10
49489;SHT31;35382;51.484;11.476;2024-01-16T08:15:14;-1.88;91.12
49489;SHT31;35382;51.484;11.476;2024-01-16T08:17:39;-1.66;91.10
49489;SHT31;35382;51.484;11.476;2024-01-16T08:20:06;-1.47;90.33
49489;SHT31;35382;51.484;11.476;2024-01-16T08:22:31;-1.57;90.98
49489;SHT31;35382;51.484;11.476;2024-01-16T08:24:57;-1.43;89.85
49489;SHT31;35382;51.484;11.476;2024-01-16T08:27:22;-1.32;89.57
49489;SHT31;35382;51.484;11.476;2024-01-16T08:29:47;-1.20;89.72
49489;SHT31;35382;51.484;11.476;2024-01-16T08:32:13;-1.38;89.97
49489;SHT31;35382;51.484;11.476;2024-01-16T08:34:38;-1.16;89.86
49489;SHT31;35382;51.484;11.476;2024-01-16T08:37:03;-1.39;90.20
49489;SHT31;35382;51.484;11.476;2024-01-16T08:39:29;-1.16;89.93
49489;SHT31;35382;51.484;11.476;2024-01-16T08:41:54;-0.99;89.28
49489;SHT31;35382;51.484;11.476;2024-01-16T08:44:19;-0.82;88.23
49489;SHT31;35382;51.484;11.476;2024-01-16T08:46:45;-0.66;87.78
49489;SHT31;35382;51.484;11.476;2024-01-16T08:49:10;-0.61;87.65
49489;SHT31;35382;51.484;11.476;2024-01-16T08:51:35;-0.55;87.72
49489;SHT31;35382;51.484;11.476;2024-01-16T08:54:01;-0.65;88.09
49489;SHT31;35382;51.484;11.476;2024-01-16T08:56:26;-0.62;88.12
49489;SHT31;35382;51.484;11.476;2024-01-16T08:58:51;-0.62;88.21
49489;SHT31;35382;51.484;11.476;2024-01-16T09:01:19;-0.64;88.09
49489;SHT31;35382;51.484;11.476;2024-01-16T09:03:45;-0.65;88.33
49489;SHT31;35382;51.484;11.476;2024-01-16T09:06:11;-0.64;88.20
49489;SHT31;35382;51.484;11.476;2024-01-16T09:08:36;-0.71;88.90
49489;SHT31;35382;51.484;11.476;2024-01-16T09:11:02;-0.69;88.82
49489;SHT31;35382;51.484;11.476;2024-01-16T09:13:27;-0.69;89.00
49489;SHT31;35382;51.484;11.476;2024-01-16T09:15:52;-0.72;88.95
49489;SHT31;35382;51.484;11.476;2024-01-16T09:18:18;-0.73;89.28
49489;SHT31;35382;51.484;11.476;2024-01-16T09:20:43;-0.68;89.01
49489;SHT31;35382;51.484;11.476;2024-01-16T09:23:09;-0.66;88.58
49489;SHT31;35382;51.484;11.476;2024-01-16T09:25:34;-0.61;88.52
49489;SHT31;35382;51.484;11.476;2024-01-16T09:28:01;-0.58;88.44
49489;SHT31;35382;51.484;11.476;2024-01-16T09:30:26;-0.48;88.05
49489;SHT31;35382;51.484;11.476;2024-01-16T09:32:51;-0.49;88.04
49489;SHT31;35382;51.484;11.476;2024-01-16T09:35:17;-0.54;88.17
49489;SHT31;35382;51.484;11.476;2024-01-16T09:37:42;-0.61;88.47
49489;SHT31;35382;51.484;11.476;2024-01-16T09:40:08;-0.59;88.96
49489;SHT31;35382;51.484;11.476;2024-01-16T09:42:34;-0.58;89.06
49489;SHT31;35382;51.484;11.476;2024-01-16T09:45:03;-0.52;88.82
49489;SHT31;35382;51.484;11.476;2024-01-16T09:47:32;-0.45;88.63
49489;SHT31;35382;51.484;11.476;2024-01-16T09:50:02;-0.55;88.81
49489;SHT31;35382;51.484;11.476;2024-01-16T09:52:28;-0.42;88.60
49489;SHT31;35382;51.484;11.476;2024-01-16T09:54:54;-0.45;88.63
49489;SHT31;35382;51.484;11.476;2024-01-16T09:57:24;-0.45;88.93
49489;SHT31;35382;51.484;11.476;2024-01-16T09:59:50;-0.41;88.90
49489;SHT31;35382;51.484;11.476;2024-01-16T10:02:17;-0.45;88.96
49489;SHT31;35382;51.484;11.476;2024-01-16T10:04:43;-0.52;89.06
49489;SHT31;35382;51.484;11.476;2024-01-16T10:07:10;-0.54;88.70
49489;SHT31;35382;51.484;11.476;2024-01-16T10:09:38;-0.51;88.89
49489;SHT31;35382;51.484;11.476;2024-01-16T10:12:03;-0.44;88.74
49489;SHT31;35382;51.484;11.476;2024-01-16T10:14:29;-0.41;88.56
49489;SHT31;35382;51.484;11.476;2024-01-16T10:17:02;-0.35;88.64
49489;SHT31;35382;51.484;11.476;2024-01-16T10:19:29;-0.32;88.76
49489;SHT31;35382;51.484;11.476;2024-01-16T10:22:03;-0.28;88.47
49489;SHT31;35382;51.484;11.476;2024-01-16T10:24:29;-0.19;88.36
49489;SHT31;35382;51.484;11.476;2024-01-16T10:26:58;-0.17;88.72
49489;SHT31;35382;51.484;11.476;2024-01-16T10:29:23;-0.07;88.53
49489;SHT31;35382;51.484;11.476;2024-01-16T10:31:49;-0.08;88.37
49489;SHT31;35382;51.484;11.476;2024-01-16T10:34:24;-0.11;88.45
49489;SHT31;35382;51.484;11.476;2024-01-16T10:36:51;-0.08;88.24
49489;SHT31;35382;51.484;11.476;2024-01-16T10:39:17;0.09;88.31
49489;SHT31;35382;51.484;11.476;2024-01-16T10:41:54;0.07;88.30
49489;SHT31;35382;51.484;11.476;2024-01-16T10:44:19;0.09;88.30
49489;SHT31;35382;51.484;11.476;2024-01-16T10:46:44;0.05;88.58
49489;SHT31;35382;51.484;11.476;2024-01-16T10:49:10;0.06;88.59
49489;SHT31;35382;51.484;11.476;2024-01-16T10:51:35;0.06;88.28
49489;SHT31;35382;51.484;11.476;2024-01-16T10:54:03;-0.07;88.58
49489;SHT31;35382;51.484;11.476;2024-01-16T10:56:29;-0.15;89.06
49489;SHT31;35382;51.484;11.476;2024-01-16T10:59:09;-0.04;88.86
49489;SHT31;35382;51.484;11.476;2024-01-16T11:01:37;0.03;88.99
49489;SHT31;35382;51.484;11.476;2024-01-16T11:04:04;0.11;88.77
49489;SHT31;35382;51.484;11.476;2024-01-16T11:06:31;0.11;88.20
49489;SHT31;35382;51.484;11.476;2024-01-16T11:08:57;0.05;88.51
49489;SHT31;35382;51.484;11.476;2024-01-16T11:11:23;-0.01;88.54
49489;SHT31;35382;51.484;11.476;2024-01-16T11:13:48;-0.05;88.41
49489;SHT31;35382;51.484;11.476;2024-01-16T11:16:15;-0.13;88.77
49489;SHT31;35382;51.484;11.476;2024-01-16T11:18:40;-0.18;88.87
49489;SHT31;35382;51.484;11.476;2024-01-16T11:21:10;-0.21;89.03
49489;SHT31;35382;51.484;11.476;2024-01-16T11:23:37;-0.25;89.28
49489;SHT31;35382;51.484;11.476;2024-01-16T11:26:28;-0.27;89.67
49489;SHT31;35382;51.484;11.476;2024-01-16T11:28:54;-0.24;89.54
49489;SHT31;35382;51.484;11.476;2024-01-16T11:31:33;-0.17;89.30
49489;SHT31;35382;51.484;11.476;2024-01-16T11:33:59;-0.22;89.57
49489;SHT31;35382;51.484;11.476;2024-01-16T11:36:57;0.03;89.51
49489;SHT31;35382;51.484;11.476;2024-01-16T11:39:24;0.16;89.46
49489;SHT31;35382;51.484;11.476;2024-01-16T11:41:57;0.23;89.41
49489;SHT31;35382;51.484;11.476;2024-01-16T11:47:08;0.36;89.11
49489;SHT31;35382;51.484;11.476;2024-01-16T11:49:33;0.40;88.65
49489;SHT31;35382;51.484;11.476;2024-01-16T11:51:59;0.30;88.72
49489;SHT31;35382;51.484;11.476;2024-01-16T11:54:24;0.39;88.56
49489;SHT31;35382;51.484;11.476;2024-01-16T11:59:54;0.37;88.81
49489;SHT31;35382;51.484;11.476;2024-01-16T12:05:06;0.29;88.56
49489;SHT31;35382;51.484;11.476;2024-01-16T12:07:45;0.37;88.64
49489;SHT31;35382;51.484;11.476;2024-01-16T12:10:11;0.46;88.55
49489;SHT31;35382;51.484;11.476;2024-01-16T12:12:36;0.51;88.06
49489;SHT31;35382;51.484;11.476;2024-01-16T12:15:02;0.53;88.44
49489;SHT31;35382;51.484;11.476;2024-01-16T12:17:27;0.49;88.54
49489;SHT31;35382;51.484;11.476;2024-01-16T12:19:52;0.51;88.87
49489;SHT31;35382;51.484;11.476;2024-01-16T12:22:18;0.54;88.55
49489;SHT31;35382;51.484;11.476;2024-01-16T12:24:43;0.64;88.48
49489;SHT31;35382;51.484;11.476;2024-01-16T12:27:09;0.71;88.09
49489;SHT31;35382;51.484;11.476;2024-01-16T12:29:34;0.87;87.57
49489;SHT31;35382;51.484;11.476;2024-01-16T12:32:10;1.01;86.73
49489;SHT31;35382;51.484;11.476;2024-01-16T12:34:48;1.19;86.54
49489;SHT31;35382;51.484;11.476;2024-01-16T12:37:13;1.32;86.15
49489;SHT31;35382;51.484;11.476;2024-01-16T12:39:47;1.43;86.31
49489;SHT31;35382;51.484;11.476;2024-01-16T12:42:12;1.42;86.12
49489;SHT31;35382;51.484;11.476;2024-01-16T12:44:38;1.45;85.81
49489;SHT31;35382;51.484;11.476;2024-01-16T12:47:03;1.48;85.38
49489;SHT31;35382;51.484;11.476;2024-01-16T12:49:29;1.22;85.54
49489;SHT31;35382;51.484;11.476;2024-01-16T12:52:14;1.22;85.58
49489;SHT31;35382;51.484;11.476;2024-01-16T12:54:39;1.28;86.09
49489;SHT31;35382;51.484;11.476;2024-01-16T12:57:05;1.36;85.11
49489;SHT31;35382;51.484;11.476;2024-01-16T12:59:30;1.29;85.71
49489;SHT31;35382;51.484;11.476;2024-01-16T13:01:56;1.28;85.25
49489;SHT31;35382;51.484;11.476;2024-01-16T13:04:21;1.42;85.13
49489;SHT31;35382;51.484;11.476;2024-01-16T13:06:46;1.48;84.52
49489;SHT31;35382;51.484;11.476;2024-01-16T13:09:12;1.49;84.28
49489;SHT31;35382;51.484;11.476;2024-01-16T13:11:48;1.38;84.25
49489;SHT31;35382;51.484;11.476;2024-01-16T13:14:14;1.27;85.27
49489;SHT31;35382;51.484;11.476;2024-01-16T13:16:39;1.11;85.37
49489;SHT31;35382;51.484;11.476;2024-01-16T13:19:04;0.97;85.53
49489;SHT31;35382;51.484;11.476;2024-01-16T13:21:30;0.81;85.61
49489;SHT31;35382;51.484;11.476;2024-01-16T13:23:55;0.78;86.20
49489;SHT31;35382;51.484;11.476;2024-01-16T13:26:20;0.78;86.19
49489;SHT31;35382;51.484;11.476;2024-01-16T13:28:46;0.74;86.08
49489;SHT31;35382;51.484;11.476;2024-01-16T13:31:11;0.61;86.25
49489;SHT31;35382;51.484;11.476;2024-01-16T13:33:36;0.63;86.56
49489;SHT31;35382;51.484;11.476;2024-01-16T13:36:02;0.60;86.35
49489;SHT31;35382;51.484;11.476;2024-01-16T13:38:27;0.61;85.95
49489;SHT31;35382;51.484;11.476;2024-01-16T13:40:53;0.57;86.51
49489;SHT31;35382;51.484;11.476;2024-01-16T13:43:18;0.56;86.92
49489;SHT31;35382;51.484;11.476;2024-01-16T13:45:43;0.49;87.03
49489;SHT31;35382;51.484;11.476;2024-01-16T13:48:09;0.47;86.97
49489;SHT31;35382;51.484;11.476;2024-01-16T13:50:34;0.43;87.01
49489;SHT31;35382;51.484;11.476;2024-01-16T13:53:00;0.60;86.04
49489;SHT31;35382;51.484;11.476;2024-01-16T13:55:26;0.54;85.99
49489;SHT31;35382;51.484;11.476;2024-01-16T13:57:51;0.47;85.94
49489;SHT31;35382;51.484;11.476;2024-01-16T14:00:17;0.49;85.35
49489;SHT31;35382;51.484;11.476;2024-01-16T14:02:43;0.49;85.76
49489;SHT31;35382;51.484;11.476;2024-01-16T14:05:10;0.46;85.57
49489;SHT31;35382;51.484;11.476;2024-01-16T14:07:36;0.54;84.48
49489;SHT31;35382;51.484;11.476;2024-01-16T14:10:01;0.57;84.31
49489;SHT31;35382;51.484;11.476;2024-01-16T14:12:26;0.56;84.82
49489;SHT31;35382;51.484;11.476;2024-01-16T14:14:52;0.60;84.21
49489;SHT31;35382;51.484;11.476;2024-01-16T14:17:19;0.60;84.20
49489;SHT31;35382;51.484;11.476;2024-01-16T14:19:44;0.58;83.99
49489;SHT31;35382;51.484;11.476;2024-01-16T14:22:10;0.50;83.94
49489;SHT31;35382;51.484;11.476;2024-01-16T14:24:35;0.51;84.20
49489;SHT31;35382;51.484;11.476;2024-01-16T14:27:00;0.47;84.03
49489;SHT31;35382;51.484;11.476;2024-01-16T14:29:28;0.50;83.06
49489;SHT31;35382;51.484;11.476;2024-01-16T14:31:54;0.44;83.60
49489;SHT31;35382;51.484;11.476;2024-01-16T14:34:19;0.37;84.09
49489;SHT31;35382;51.484;11.476;2024-01-16T14:36:45;0.27;84.28
49489;SHT31;35382;51.484;11.476;2024-01-16T14:39:10;0.17;84.48
49489;SHT31;35382;51.484;11.476;2024-01-16T14:41:36;0.11;84.43
49489;SHT31;35382;51.484;11.476;2024-01-16T14:44:01;0.05;84.84
49489;SHT31;35382;51.484;11.476;2024-01-16T14:46:27;0.10;83.54
49489;SHT31;35382;51.484;11.476;2024-01-16T14:48:52;0.06;84.45
49489;SHT31;35382;51.484;11.476;2024-01-16T14:51:17;0.02;84.35
49489;SHT31;35382;51.484;11.476;2024-01-16T14:53:43;0.00;84.30
49489;SHT31;35382;51.484;11.476;2024-01-16T14:56:08;-0.07;84.59
49489;SHT31;35382;51.484;11.476;2024-01-16T14:58:33;-0.14;84.93
49489;SHT31;35382;51.484;11.476;2024-01-16T15:00:59;-0.25;85.33
49489;SHT31;35382;51.484;11.476;2024-01-16T15:03:24;-0.24;85.53
49489;SHT31;35382;51.484;11.476;2024-01-16T15:05:50;-0.27;85.37
49489;SHT31;35382;51.484;11.476;2024-01-16T15:08:16;-0.37;85.99
49489;SHT31;35382;51.484;11.476;2024-01-16T15:10:41;-0.38;85.98
49489;SHT31;35382;51.484;11.476;2024-01-16T15:13:07;-0.47;86.50
49489;SHT31;35382;51.484;11.476;2024-01-16T15:15:32;-0.57;86.85
49489;SHT31;35382;51.484;11.476;2024-01-16T15:17:57;-0.62;87.03
49489;SHT31;35382;51.484;11.476;2024-01-16T15:20:23;-0.65;87.16
49489;SHT31;35382;51.484;11.476;2024-01-16T15:22:48;-0.72;87.67